sensor_id;sensor_type;location;lat;lon;timestamp;pressure;altitude;pressure_sealevel;temperature;humidity
56070;BME280;41944;52.078;-0.058;2022-10-16T00:00:58;100180.59;;;13.49;80.59
56070;BME280;41944;52.078;-0.058;2022-10-16T00:03:30;100180.42;;;13.53;79.95
56070;BME280;41944;52.078;-0.058;2022-10-16T00:05:59;100184.36;;;13.37;80.56
56070;BME280;41944;52.078;-0.058;2022-10-16T00:08:27;100186.98;;;13.39;80.00
56070;BME280;41944;52.078;-0.058;2022-10-16T00:10:59;100191.05;;;13.45;79.65
56070;BME280;41944;52.078;-0.058;2022-10-16T00:13:26;100192.94;;;13.44;79.14
56070;BME280;41944;52.078;-0.058;2022-10-16T00:15:55;100199.11;;;13.55;78.47
56070;BME280;41944;52.078;-0.058;2022-10-16T00:18:23;100200.10;;;13.47;78.41
56070;BME280;41944;52.078;-0.058;2022-10-16T00:20:51;100198.18;;;13.45;78.09
56070;BME280;41944;52.078;-0.058;2022-10-16T00:23:19;100194.28;;;13.58;77.99
56070;BME280;41944;52.078;-0.058;2022-10-16T00:25:55;100197.68;;;13.61;77.17
56070;BME280;41944;52.078;-0.058;2022-10-16T00:28:23;100189.90;;;13.59;77.36
56070;BME280;41944;52.078;-0.058;2022-10-16T00:30:50;100190.53;;;13.62;77.30
56070;BME280;41944;52.078;-0.058;2022-10-16T00:33:17;100190.59;;;13.62;77.28
56070;BME280;41944;52.078;-0.058;2022-10-16T00:35:45;100192.94;;;13.61;77.17
56070;BME280;41944;52.078;-0.058;2022-10-16T00:38:11;100190.24;;;13.64;77.17
56070;BME280;41944;52.078;-0.058;2022-10-16T00:40:39;100187.85;;;13.54;77.58
56070;BME280;41944;52.078;-0.058;2022-10-16T00:43:12;100190.32;;;13.55;76.71
56070;BME280;41944;52.078;-0.058;2022-10-16T00:45:41;100191.12;;;13.40;77.86
56070;BME280;41944;52.078;-0.058;2022-10-16T00:48:12;100193.19;;;13.43;77.55
56070;BME280;41944;52.078;-0.058;2022-10-16T00:50:40;100193.91;;;13.51;77.98
56070;BME280;41944;52.078;-0.058;2022-10-16T00:53:07;100191.88;;;13.50;77.13
56070;BME280;41944;52.078;-0.058;2022-10-16T00:55:34;100191.11;;;13.53;76.80
56070;BME280;41944;52.078;-0.058;2022-10-16T00:58:02;100195.32;;;13.50;76.94
56070;BME280;41944;52.078;-0.058;2022-10-16T01:00:29;100191.83;;;13.52;76.74
56070;BME280;41944;52.078;-0.058;2022-10-16T01:02:59;100195.23;;;13.51;76.23
56070;BME280;41944;52.078;-0.058;2022-10-16T01:05:32;100200.69;;;13.50;76.81
56070;BME280;41944;52.078;-0.058;2022-10-16T01:08:07;100200.77;;;13.44;76.69
56070;BME280;41944;52.078;-0.058;2022-10-16T01:10:39;100196.13;;;13.34;77.14
56070;BME280;41944;52.078;-0.058;2022-10-16T01:13:10;100199.05;;;13.28;77.09
56070;BME280;41944;52.078;-0.058;2022-10-16T01:15:42;100206.16;;;13.41;76.94
56070;BME280;41944;52.078;-0.058;2022-10-16T01:18:16;100209.33;;;13.43;76.73
56070;BME280;41944;52.078;-0.058;2022-10-16T01:20:48;100210.10;;;13.39;76.98
56070;BME280;41944;52.078;-0.058;2022-10-16T01:23:28;100212.22;;;13.21;77.13
56070;BME280;41944;52.078;-0.058;2022-10-16T01:26:16;100215.71;;;13.29;76.99
56070;BME280;41944;52.078;-0.058;2022-10-16T01:28:53;100216.48;;;13.40;77.16
56070;BME280;41944;52.078;-0.058;2022-10-16T01:31:24;100217.70;;;13.35;76.90
56070;BME280;41944;52.078;-0.058;2022-10-16T01:34:00;100220.20;;;13.40;76.18
56070;BME280;41944;52.078;-0.058;2022-10-16T01:36:37;100222.96;;;13.38;76.10
56070;BME280;41944;52.078;-0.058;2022-10-16T01:39:09;100224.90;;;13.29;76.28
56070;BME280;41944;52.078;-0.058;2022-10-16T01:41:41;100225.79;;;13.22;76.67
56070;BME280;41944;52.078;-0.058;2022-10-16T01:44:13;100227.56;;;13.23;76.96
56070;BME280;41944;52.078;-0.058;2022-10-16T01:46:43;100226.02;;;13.32;76.83
56070;BME280;41944;52.078;-0.058;2022-10-16T01:49:13;100219.44;;;13.34;77.40
56070;BME280;41944;52.078;-0.058;2022-10-16T01:51:42;100217.78;;;13.44;77.12
56070;BME280;41944;52.078;-0.058;2022-10-16T01:54:14;100222.74;;;13.38;77.78
56070;BME280;41944;52.078;-0.058;2022-10-16T01:56:43;100222.92;;;13.45;77.77
56070;BME280;41944;52.078;-0.058;2022-10-16T01:59:15;100224.65;;;13.51;78.16
56070;BME280;41944;52.078;-0.058;2022-10-16T02:01:52;100227.22;;;13.57;77.30
56070;BME280;41944;52.078;-0.058;2022-10-16T02:04:31;100224.55;;;13.49;77.90
56070;BME280;41944;52.078;-0.058;2022-10-16T02:06:59;100226.40;;;13.52;78.02
56070;BME280;41944;52.078;-0.058;2022-10-16T02:09:26;100226.48;;;13.47;78.44
56070;BME280;41944;52.078;-0.058;2022-10-16T02:11:56;100226.95;;;13.61;78.04
56070;BME280;41944;52.078;-0.058;2022-10-16T02:14:26;100230.20;;;13.65;78.08
56070;BME280;41944;52.078;-0.058;2022-10-16T02:16:53;100228.03;;;13.56;78.16
56070;BME280;41944;52.078;-0.058;2022-10-16T02:19:21;100231.78;;;13.72;77.73
56070;BME280;41944;52.078;-0.058;2022-10-16T02:21:53;100240.27;;;13.77;77.43
56070;BME280;41944;52.078;-0.058;2022-10-16T02:24:27;100248.47;;;13.76;77.43
56070;BME280;41944;52.078;-0.058;2022-10-16T02:27:03;100251.76;;;13.63;77.75
56070;BME280;41944;52.078;-0.058;2022-10-16T02:29:38;100251.85;;;13.58;78.16
56070;BME280;41944;52.078;-0.058;2022-10-16T02:32:07;100256.31;;;13.59;77.84
56070;BME280;41944;52.078;-0.058;2022-10-16T02:34:37;100263.75;;;13.54;77.63
56070;BME280;41944;52.078;-0.058;2022-10-16T02:37:06;100264.21;;;13.55;77.65
56070;BME280;41944;52.078;-0.058;2022-10-16T02:39:34;100259.43;;;13.61;78.24
56070;BME280;41944;52.078;-0.058;2022-10-16T02:42:02;100271.98;;;13.56;77.66
56070;BME280;41944;52.078;-0.058;2022-10-16T02:44:29;100274.08;;;13.55;77.53
56070;BME280;41944;52.078;-0.058;2022-10-16T02:46:56;100278.25;;;13.32;78.41
56070;BME280;41944;52.078;-0.058;2022-10-16T02:49:23;100283.26;;;13.41;78.68
56070;BME280;41944;52.078;-0.058;2022-10-16T02:51:50;100282.90;;;13.28;79.03
56070;BME280;41944;52.078;-0.058;2022-10-16T02:54:17;100282.53;;;13.25;79.02
56070;BME280;41944;52.078;-0.058;2022-10-16T02:56:44;100287.02;;;13.19;79.16
56070;BME280;41944;52.078;-0.058;2022-10-16T02:59:11;100297.31;;;13.18;79.31
56070;BME280;41944;52.078;-0.058;2022-10-16T03:01:38;100297.25;;;13.18;79.13
56070;BME280;41944;52.078;-0.058;2022-10-16T03:04:05;100303.66;;;13.13;79.32
56070;BME280;41944;52.078;-0.058;2022-10-16T03:06:32;100309.15;;;13.06;79.90
56070;BME280;41944;52.078;-0.058;2022-10-16T03:08:59;100305.67;;;13.04;80.02
56070;BME280;41944;52.078;-0.058;2022-10-16T03:11:26;100308.69;;;13.12;79.56
56070;BME280;41944;52.078;-0.058;2022-10-16T03:13:53;100309.79;;;13.06;79.80
56070;BME280;41944;52.078;-0.058;2022-10-16T03:16:20;100315.01;;;13.07;79.69
56070;BME280;41944;52.078;-0.058;2022-10-16T03:18:48;100314.80;;;13.20;78.93
56070;BME280;41944;52.078;-0.058;2022-10-16T03:21:15;100315.05;;;13.23;78.54
56070;BME280;41944;52.078;-0.058;2022-10-16T03:23:42;100313.70;;;13.28;78.68
56070;BME280;41944;52.078;-0.058;2022-10-16T03:26:09;100310.19;;;13.29;78.64
56070;BME280;41944;52.078;-0.058;2022-10-16T03:28:36;100311.36;;;13.27;77.81
56070;BME280;41944;52.078;-0.058;2022-10-16T03:31:03;100320.46;;;13.19;78.10
56070;BME280;41944;52.078;-0.058;2022-10-16T03:33:30;100325.38;;;13.20;78.16
56070;BME280;41944;52.078;-0.058;2022-10-16T03:35:57;100330.51;;;13.13;78.51
56070;BME280;41944;52.078;-0.058;2022-10-16T03:38:24;100332.05;;;13.19;77.74
56070;BME280;41944;52.078;-0.058;2022-10-16T03:40:52;100339.59;;;13.22;77.78
56070;BME280;41944;52.078;-0.058;2022-10-16T03:43:19;100342.08;;;13.15;78.03
56070;BME280;41944;52.078;-0.058;2022-10-16T03:45:46;100344.80;;;13.21;77.21
56070;BME280;41944;52.078;-0.058;2022-10-16T03:48:12;100348.75;;;13.14;77.06
56070;BME280;41944;52.078;-0.058;2022-10-16T03:50:40;100346.46;;;13.15;76.85
56070;BME280;41944;52.078;-0.058;2022-10-16T03:53:07;100352.13;;;13.17;76.44
56070;BME280;41944;52.078;-0.058;2022-10-16T03:55:34;100348.73;;;13.16;76.10
56070;BME280;41944;52.078;-0.058;2022-10-16T03:58:01;100354.24;;;13.14;76.80
56070;BME280;41944;52.078;-0.058;2022-10-16T04:00:28;100356.78;;;13.14;76.79
56070;BME280;41944;52.078;-0.058;2022-10-16T04:02:55;100360.47;;;13.04;76.73
56070;BME280;41944;52.078;-0.058;2022-10-16T04:05:22;100364.20;;;13.04;76.73
56070;BME280;41944;52.078;-0.058;2022-10-16T04:07:49;100366.10;;;13.11;77.44
56070;BME280;41944;52.078;-0.058;2022-10-16T04:10:17;100366.79;;;13.05;76.04
56070;BME280;41944;52.078;-0.058;2022-10-16T04:12:44;100369.47;;;13.04;76.10
56070;BME280;41944;52.078;-0.058;2022-10-16T04:15:11;100375.39;;;13.08;76.16
56070;BME280;41944;52.078;-0.058;2022-10-16T04:17:38;100374.95;;;13.03;75.77
56070;BME280;41944;52.078;-0.058;2022-10-16T04:20:06;100379.45;;;13.07;75.59
56070;BME280;41944;52.078;-0.058;2022-10-16T04:22:33;100385.70;;;12.99;75.61
56070;BME280;41944;52.078;-0.058;2022-10-16T04:25:00;100386.50;;;12.95;75.87
56070;BME280;41944;52.078;-0.058;2022-10-16T04:27:27;100394.77;;;13.00;75.80
56070;BME280;41944;52.078;-0.058;2022-10-16T04:29:54;100401.37;;;12.99;75.61
56070;BME280;41944;52.078;-0.058;2022-10-16T04:32:21;100409.03;;;12.90;75.57
56070;BME280;41944;52.078;-0.058;2022-10-16T04:34:48;100417.73;;;12.87;76.14
56070;BME280;41944;52.078;-0.058;2022-10-16T04:37:15;100423.92;;;12.84;76.50
56070;BME280;41944;52.078;-0.058;2022-10-16T04:39:42;100433.68;;;12.88;76.08
56070;BME280;41944;52.078;-0.058;2022-10-16T04:42:09;100436.52;;;12.87;76.03
56070;BME280;41944;52.078;-0.058;2022-10-16T04:44:36;100443.72;;;12.88;76.25
56070;BME280;41944;52.078;-0.058;2022-10-16T04:47:03;100444.03;;;12.69;76.79
56070;BME280;41944;52.078;-0.058;2022-10-16T04:49:30;100447.48;;;12.63;76.61
56070;BME280;41944;52.078;-0.058;2022-10-16T04:51:57;100454.87;;;12.68;76.85
56070;BME280;41944;52.078;-0.058;2022-10-16T04:54:24;100468.28;;;12.71;76.77
56070;BME280;41944;52.078;-0.058;2022-10-16T04:56:50;100468.68;;;12.52;76.83
56070;BME280;41944;52.078;-0.058;2022-10-16T04:59:18;100475.49;;;12.60;76.60
56070;BME280;41944;52.078;-0.058;2022-10-16T05:01:46;100482.45;;;12.46;77.41
56070;BME280;41944;52.078;-0.058;2022-10-16T05:04:13;100490.34;;;12.44;77.39
56070;BME280;41944;52.078;-0.058;2022-10-16T05:06:41;100496.34;;;12.50;77.44
56070;BME280;41944;52.078;-0.058;2022-10-16T05:09:09;100498.03;;;12.45;77.30
56070;BME280;41944;52.078;-0.058;2022-10-16T05:11:37;100502.36;;;12.44;77.37
56070;BME280;41944;52.078;-0.058;2022-10-16T05:14:04;100509.86;;;12.41;78.01
56070;BME280;41944;52.078;-0.058;2022-10-16T05:16:31;100513.18;;;12.30;77.76
56070;BME280;41944;52.078;-0.058;2022-10-16T05:18:57;100517.02;;;12.31;77.61
56070;BME280;41944;52.078;-0.058;2022-10-16T05:21:24;100517.91;;;12.15;78.46
56070;BME280;41944;52.078;-0.058;2022-10-16T05:23:53;100520.75;;;12.26;78.30
56070;BME280;41944;52.078;-0.058;2022-10-16T05:26:21;100528.66;;;12.20;78.81
56070;BME280;41944;52.078;-0.058;2022-10-16T05:28:48;100538.03;;;12.26;77.87
56070;BME280;41944;52.078;-0.058;2022-10-16T05:31:15;100540.92;;;12.13;78.28
56070;BME280;41944;52.078;-0.058;2022-10-16T05:33:43;100544.15;;;12.08;78.78
56070;BME280;41944;52.078;-0.058;2022-10-16T05:36:10;100544.91;;;12.21;78.79
56070;BME280;41944;52.078;-0.058;2022-10-16T05:38:37;100545.80;;;12.28;78.94
56070;BME280;41944;52.078;-0.058;2022-10-16T05:41:05;100552.22;;;12.18;78.67
56070;BME280;41944;52.078;-0.058;2022-10-16T05:43:32;100553.79;;;12.37;77.91
56070;BME280;41944;52.078;-0.058;2022-10-16T05:46:01;100560.19;;;12.31;78.14
56070;BME280;41944;52.078;-0.058;2022-10-16T05:48:29;100562.31;;;12.29;77.92
56070;BME280;41944;52.078;-0.058;2022-10-16T05:50:57;100569.57;;;12.30;78.19
56070;BME280;41944;52.078;-0.058;2022-10-16T05:53:25;100579.90;;;12.31;78.40
56070;BME280;41944;52.078;-0.058;2022-10-16T05:55:52;100582.65;;;12.35;78.41
56070;BME280;41944;52.078;-0.058;2022-10-16T05:58:19;100588.56;;;12.41;78.22
56070;BME280;41944;52.078;-0.058;2022-10-16T06:00:53;100594.08;;;12.29;78.29
56070;BME280;41944;52.078;-0.058;2022-10-16T06:03:20;100600.00;;;12.21;78.29
56070;BME280;41944;52.078;-0.058;2022-10-16T06:05:48;100608.42;;;12.24;78.43
56070;BME280;41944;52.078;-0.058;2022-10-16T06:08:15;100607.94;;;12.19;79.06
56070;BME280;41944;52.078;-0.058;2022-10-16T06:10:43;100615.15;;;12.13;78.79
56070;BME280;41944;52.078;-0.058;2022-10-16T06:13:10;100609.30;;;12.18;79.23
56070;BME280;41944;52.078;-0.058;2022-10-16T06:15:38;100609.97;;;12.05;79.40
56070;BME280;41944;52.078;-0.058;2022-10-16T06:18:06;100608.65;;;11.91;79.86
56070;BME280;41944;52.078;-0.058;2022-10-16T06:20:32;100612.06;;;11.97;80.06
56070;BME280;41944;52.078;-0.058;2022-10-16T06:23:00;100620.13;;;12.09;79.72
56070;BME280;41944;52.078;-0.058;2022-10-16T06:25:27;100621.29;;;11.91;79.87
56070;BME280;41944;52.078;-0.058;2022-10-16T06:27:54;100625.17;;;12.05;79.80
56070;BME280;41944;52.078;-0.058;2022-10-16T06:30:21;100632.16;;;12.08;79.42
56070;BME280;41944;52.078;-0.058;2022-10-16T06:32:48;100638.69;;;11.89;80.08
56070;BME280;41944;52.078;-0.058;2022-10-16T06:35:15;100643.25;;;11.86;80.56
56070;BME280;41944;52.078;-0.058;2022-10-16T06:37:42;100643.52;;;11.84;81.16
56070;BME280;41944;52.078;-0.058;2022-10-16T06:40:09;100652.39;;;11.72;81.06
56070;BME280;41944;52.078;-0.058;2022-10-16T06:42:37;100656.71;;;11.77;81.08
56070;BME280;41944;52.078;-0.058;2022-10-16T06:45:04;100663.32;;;11.66;81.63
56070;BME280;41944;52.078;-0.058;2022-10-16T06:47:31;100667.93;;;11.60;82.59
56070;BME280;41944;52.078;-0.058;2022-10-16T06:49:58;100668.96;;;11.53;82.67
56070;BME280;41944;52.078;-0.058;2022-10-16T06:52:28;100671.73;;;11.61;82.39
56070;BME280;41944;52.078;-0.058;2022-10-16T06:54:55;100673.52;;;11.50;82.96
56070;BME280;41944;52.078;-0.058;2022-10-16T06:57:22;100679.57;;;11.64;82.96
56070;BME280;41944;52.078;-0.058;2022-10-16T06:59:49;100680.54;;;11.64;82.76
56070;BME280;41944;52.078;-0.058;2022-10-16T07:02:15;100686.59;;;11.59;82.96
56070;BME280;41944;52.078;-0.058;2022-10-16T07:04:42;100694.50;;;11.38;83.79
56070;BME280;41944;52.078;-0.058;2022-10-16T07:07:09;100701.26;;;11.45;83.81
56070;BME280;41944;52.078;-0.058;2022-10-16T07:09:36;100714.77;;;11.40;83.98
56070;BME280;41944;52.078;-0.058;2022-10-16T07:12:03;100717.27;;;11.32;84.47
56070;BME280;41944;52.078;-0.058;2022-10-16T07:14:31;100720.66;;;11.37;84.57
56070;BME280;41944;52.078;-0.058;2022-10-16T07:16:58;100723.54;;;11.39;84.78
56070;BME280;41944;52.078;-0.058;2022-10-16T07:19:25;100727.48;;;11.41;84.64
56070;BME280;41944;52.078;-0.058;2022-10-16T07:21:52;100734.84;;;11.54;84.26
56070;BME280;41944;52.078;-0.058;2022-10-16T07:24:19;100744.13;;;11.58;84.05
56070;BME280;41944;52.078;-0.058;2022-10-16T07:26:46;100745.65;;;11.63;84.33
56070;BME280;41944;52.078;-0.058;2022-10-16T07:29:15;100743.36;;;11.72;83.96
56070;BME280;41944;52.078;-0.058;2022-10-16T07:31:43;100744.98;;;11.81;83.38
56070;BME280;41944;52.078;-0.058;2022-10-16T07:34:13;100748.04;;;12.01;82.77
56070;BME280;41944;52.078;-0.058;2022-10-16T07:36:41;100754.16;;;12.19;81.52
56070;BME280;41944;52.078;-0.058;2022-10-16T07:39:08;100763.14;;;12.12;81.96
56070;BME280;41944;52.078;-0.058;2022-10-16T07:41:35;100771.28;;;12.27;81.52
56070;BME280;41944;52.078;-0.058;2022-10-16T07:44:03;100776.64;;;12.34;80.88
56070;BME280;41944;52.078;-0.058;2022-10-16T07:46:30;100774.29;;;12.36;81.23
56070;BME280;41944;52.078;-0.058;2022-10-16T07:48:58;100776.64;;;12.44;80.32
56070;BME280;41944;52.078;-0.058;2022-10-16T07:51:25;100785.13;;;12.59;80.13
56070;BME280;41944;52.078;-0.058;2022-10-16T07:53:53;100783.48;;;12.76;79.05
56070;BME280;41944;52.078;-0.058;2022-10-16T07:56:21;100784.96;;;12.77;79.29
56070;BME280;41944;52.078;-0.058;2022-10-16T07:58:48;100787.39;;;12.99;78.39
56070;BME280;41944;52.078;-0.058;2022-10-16T08:01:17;100791.34;;;13.14;77.52
56070;BME280;41944;52.078;-0.058;2022-10-16T08:03:45;100797.42;;;13.11;77.68
56070;BME280;41944;52.078;-0.058;2022-10-16T08:06:13;100799.79;;;13.04;77.86
56070;BME280;41944;52.078;-0.058;2022-10-16T08:08:41;100809.34;;;13.23;77.34
56070;BME280;41944;52.078;-0.058;2022-10-16T08:11:08;100816.53;;;13.34;77.12
56070;BME280;41944;52.078;-0.058;2022-10-16T08:13:35;100819.30;;;13.38;76.47
56070;BME280;41944;52.078;-0.058;2022-10-16T08:16:03;100821.57;;;13.45;76.65
56070;BME280;41944;52.078;-0.058;2022-10-16T08:18:31;100822.30;;;13.56;76.00
56070;BME280;41944;52.078;-0.058;2022-10-16T08:20:59;100831.14;;;13.56;76.07
56070;BME280;41944;52.078;-0.058;2022-10-16T08:23:27;100840.13;;;13.64;75.73
56070;BME280;41944;52.078;-0.058;2022-10-16T08:25:54;100844.84;;;13.51;76.56
56070;BME280;41944;52.078;-0.058;2022-10-16T08:28:23;100852.70;;;13.67;75.69
56070;BME280;41944;52.078;-0.058;2022-10-16T08:30:50;100856.95;;;13.80;75.39
56070;BME280;41944;52.078;-0.058;2022-10-16T08:33:17;100858.82;;;13.70;76.25
56070;BME280;41944;52.078;-0.058;2022-10-16T08:35:51;100862.77;;;13.95;74.61
56070;BME280;41944;52.078;-0.058;2022-10-16T08:38:18;100872.48;;;14.15;73.85
56070;BME280;41944;52.078;-0.058;2022-10-16T08:40:45;100875.89;;;14.31;72.81
56070;BME280;41944;52.078;-0.058;2022-10-16T08:43:29;100877.90;;;14.38;72.33
56070;BME280;41944;52.078;-0.058;2022-10-16T08:46:10;100877.99;;;14.30;73.17
56070;BME280;41944;52.078;-0.058;2022-10-16T08:48:45;100878.51;;;14.50;72.36
56070;BME280;41944;52.078;-0.058;2022-10-16T08:51:19;100882.38;;;14.58;71.87
56070;BME280;41944;52.078;-0.058;2022-10-16T08:53:51;100890.22;;;14.64;71.60
56070;BME280;41944;52.078;-0.058;2022-10-16T08:56:19;100895.16;;;14.78;71.41
56070;BME280;41944;52.078;-0.058;2022-10-16T08:58:48;100905.00;;;14.78;71.63
56070;BME280;41944;52.078;-0.058;2022-10-16T09:01:17;100902.99;;;14.92;70.87
56070;BME280;41944;52.078;-0.058;2022-10-16T09:04:26;100904.41;;;14.92;70.43
56070;BME280;41944;52.078;-0.058;2022-10-16T09:07:04;100908.09;;;15.03;70.45
56070;BME280;41944;52.078;-0.058;2022-10-16T09:09:50;100913.56;;;15.25;69.26
56070;BME280;41944;52.078;-0.058;2022-10-16T09:12:24;100915.73;;;15.36;68.62
56070;BME280;41944;52.078;-0.058;2022-10-16T09:15:02;100922.24;;;15.32;69.05
56070;BME280;41944;52.078;-0.058;2022-10-16T09:17:38;100924.31;;;15.25;69.41
56070;BME280;41944;52.078;-0.058;2022-10-16T09:20:18;100922.20;;;15.36;68.65
56070;BME280;41944;52.078;-0.058;2022-10-16T09:22:46;100924.89;;;15.34;69.34
56070;BME280;41944;52.078;-0.058;2022-10-16T09:25:15;100931.57;;;15.45;68.58
56070;BME280;41944;52.078;-0.058;2022-10-16T09:27:45;100928.99;;;15.62;67.66
56070;BME280;41944;52.078;-0.058;2022-10-16T09:30:15;100936.37;;;15.93;65.86
56070;BME280;41944;52.078;-0.058;2022-10-16T09:32:45;100939.26;;;15.86;66.55
56070;BME280;41944;52.078;-0.058;2022-10-16T09:35:16;100940.48;;;16.01;65.92
56070;BME280;41944;52.078;-0.058;2022-10-16T09:37:46;100938.15;;;15.98;66.02
56070;BME280;41944;52.078;-0.058;2022-10-16T09:40:24;100941.14;;;16.15;65.89
56070;BME280;41944;52.078;-0.058;2022-10-16T09:42:57;100942.38;;;16.14;65.55
56070;BME280;41944;52.078;-0.058;2022-10-16T09:45:28;100941.75;;;16.40;64.87
56070;BME280;41944;52.078;-0.058;2022-10-16T09:47:56;100937.14;;;16.39;64.94
56070;BME280;41944;52.078;-0.058;2022-10-16T09:50:25;100938.50;;;16.33;64.58
56070;BME280;41944;52.078;-0.058;2022-10-16T09:53:04;100941.75;;;16.42;63.53
56070;BME280;41944;52.078;-0.058;2022-10-16T09:55:31;100942.32;;;16.60;63.81
56070;BME280;41944;52.078;-0.058;2022-10-16T09:57:58;100949.19;;;16.71;62.17
56070;BME280;41944;52.078;-0.058;2022-10-16T10:00:25;100944.46;;;16.82;61.04
56070;BME280;41944;52.078;-0.058;2022-10-16T10:02:53;100941.36;;;16.61;62.04
56070;BME280;41944;52.078;-0.058;2022-10-16T10:05:22;100941.55;;;16.63;62.97
56070;BME280;41944;52.078;-0.058;2022-10-16T10:07:55;100941.81;;;16.68;60.51
56070;BME280;41944;52.078;-0.058;2022-10-16T10:10:25;100941.64;;;16.82;60.16
56070;BME280;41944;52.078;-0.058;2022-10-16T10:12:53;100941.25;;;16.77;60.43
56070;BME280;41944;52.078;-0.058;2022-10-16T10:15:22;100941.74;;;16.88;60.68
56070;BME280;41944;52.078;-0.058;2022-10-16T10:17:51;100937.92;;;16.93;60.81
56070;BME280;41944;52.078;-0.058;2022-10-16T10:20:25;100940.23;;;17.12;60.14
56070;BME280;41944;52.078;-0.058;2022-10-16T10:22:54;100944.67;;;17.17;58.98
56070;BME280;41944;52.078;-0.058;2022-10-16T10:25:31;100950.04;;;17.16;59.19
56070;BME280;41944;52.078;-0.058;2022-10-16T10:28:14;100944.79;;;17.26;58.92
56070;BME280;41944;52.078;-0.058;2022-10-16T10:30:50;100947.55;;;17.39;58.47
56070;BME280;41944;52.078;-0.058;2022-10-16T10:33:25;100949.34;;;17.57;57.13
56070;BME280;41944;52.078;-0.058;2022-10-16T10:36:01;100948.67;;;17.43;57.20
56070;BME280;41944;52.078;-0.058;2022-10-16T10:38:39;100952.28;;;17.44;58.06
56070;BME280;41944;52.078;-0.058;2022-10-16T10:41:24;100953.79;;;17.70;56.49
56070;BME280;41944;52.078;-0.058;2022-10-16T10:44:01;100950.65;;;17.69;58.15
56070;BME280;41944;52.078;-0.058;2022-10-16T10:46:35;100947.19;;;17.84;56.84
56070;BME280;41944;52.078;-0.058;2022-10-16T10:49:13;100948.92;;;17.81;56.68
56070;BME280;41944;52.078;-0.058;2022-10-16T10:51:52;100944.58;;;17.84;55.92
56070;BME280;41944;52.078;-0.058;2022-10-16T10:54:29;100946.74;;;17.76;56.95
56070;BME280;41944;52.078;-0.058;2022-10-16T10:57:02;100941.33;;;17.86;56.94
56070;BME280;41944;52.078;-0.058;2022-10-16T10:59:48;100947.31;;;18.03;56.05
56070;BME280;41944;52.078;-0.058;2022-10-16T11:02:24;100947.38;;;18.09;54.82
56070;BME280;41944;52.078;-0.058;2022-10-16T11:05:06;100945.83;;;18.10;55.37
56070;BME280;41944;52.078;-0.058;2022-10-16T11:07:39;100942.50;;;18.13;55.53
56070;BME280;41944;52.078;-0.058;2022-10-16T11:10:13;100942.05;;;18.22;54.06
56070;BME280;41944;52.078;-0.058;2022-10-16T11:12:45;100940.19;;;18.19;55.34
56070;BME280;41944;52.078;-0.058;2022-10-16T11:15:17;100936.92;;;17.95;55.78
56070;BME280;41944;52.078;-0.058;2022-10-16T11:17:51;100941.59;;;18.12;55.53
56070;BME280;41944;52.078;-0.058;2022-10-16T11:20:24;100944.76;;;18.21;54.82
56070;BME280;41944;52.078;-0.058;2022-10-16T11:22:56;100940.90;;;18.08;55.41
56070;BME280;41944;52.078;-0.058;2022-10-16T11:25:28;100941.12;;;18.27;54.91
56070;BME280;41944;52.078;-0.058;2022-10-16T11:28:01;100941.38;;;18.28;54.26
56070;BME280;41944;52.078;-0.058;2022-10-16T11:30:31;100940.55;;;18.19;53.21
56070;BME280;41944;52.078;-0.058;2022-10-16T11:33:23;100946.26;;;18.23;54.72
56070;BME280;41944;52.078;-0.058;2022-10-16T11:35:55;100955.73;;;18.30;54.66
56070;BME280;41944;52.078;-0.058;2022-10-16T11:38:30;100956.41;;;18.21;54.73
56070;BME280;41944;52.078;-0.058;2022-10-16T11:41:04;100954.28;;;18.53;54.14
56070;BME280;41944;52.078;-0.058;2022-10-16T11:43:39;100949.62;;;18.47;53.77
56070;BME280;41944;52.078;-0.058;2022-10-16T11:46:12;100941.60;;;18.45;53.63
56070;BME280;41944;52.078;-0.058;2022-10-16T11:48:43;100940.45;;;18.53;54.11
56070;BME280;41944;52.078;-0.058;2022-10-16T11:51:17;100945.09;;;18.68;54.50
56070;BME280;41944;52.078;-0.058;2022-10-16T11:53:55;100942.10;;;18.51;54.09
56070;BME280;41944;52.078;-0.058;2022-10-16T11:56:24;100946.79;;;18.52;54.50
56070;BME280;41944;52.078;-0.058;2022-10-16T11:58:56;100943.14;;;18.58;53.70
56070;BME280;41944;52.078;-0.058;2022-10-16T12:01:31;100943.29;;;18.49;53.50
56070;BME280;41944;52.078;-0.058;2022-10-16T12:04:11;100940.28;;;18.48;53.63
56070;BME280;41944;52.078;-0.058;2022-10-16T12:06:44;100944.35;;;18.61;54.44
56070;BME280;41944;52.078;-0.058;2022-10-16T12:09:20;100941.15;;;18.64;53.14
56070;BME280;41944;52.078;-0.058;2022-10-16T12:11:48;100936.88;;;18.72;53.57
56070;BME280;41944;52.078;-0.058;2022-10-16T12:14:22;100936.93;;;18.91;53.72
56070;BME280;41944;52.078;-0.058;2022-10-16T12:17:02;100938.69;;;19.00;52.87
56070;BME280;41944;52.078;-0.058;2022-10-16T12:19:31;100939.75;;;18.94;53.00
56070;BME280;41944;52.078;-0.058;2022-10-16T12:22:00;100936.61;;;18.98;52.20
56070;BME280;41944;52.078;-0.058;2022-10-16T12:24:33;100939.20;;;19.18;52.45
56070;BME280;41944;52.078;-0.058;2022-10-16T12:27:01;100937.96;;;19.25;53.02
56070;BME280;41944;52.078;-0.058;2022-10-16T12:29:34;100939.35;;;19.14;52.15
56070;BME280;41944;52.078;-0.058;2022-10-16T12:32:03;100941.70;;;19.03;52.66
56070;BME280;41944;52.078;-0.058;2022-10-16T12:34:38;100940.59;;;19.12;51.99
56070;BME280;41944;52.078;-0.058;2022-10-16T12:37:13;100941.91;;;19.04;51.86
56070;BME280;41944;52.078;-0.058;2022-10-16T12:39:42;100941.37;;;19.07;52.73
56070;BME280;41944;52.078;-0.058;2022-10-16T12:42:42;100937.85;;;19.12;53.05
56070;BME280;41944;52.078;-0.058;2022-10-16T12:45:27;100938.68;;;19.12;51.82
56070;BME280;41944;52.078;-0.058;2022-10-16T12:47:55;100940.01;;;19.09;52.24
56070;BME280;41944;52.078;-0.058;2022-10-16T12:50:27;100945.90;;;19.09;52.92
56070;BME280;41944;52.078;-0.058;2022-10-16T12:52:54;100952.19;;;19.21;52.41
56070;BME280;41944;52.078;-0.058;2022-10-16T12:55:23;100951.71;;;19.21;52.27